Time;durP1;ratioP1;P1;durP2;ratioP2;P2;SDS_P1;SDS_P2;PMS_P1;PMS_P2;Temp;Humidity;BMP_temperature;BMP_pressure;BME280_temperature;BME280_humidity;BME280_pressure;Samples;Min_cycle;Max_cycle;Signal;HPM_P1;HPM_P2
2023/05/10 00:01:16;;;;;;;3.95;1.58;;;;;;;;;;5008987;28;20390;-58
2023/05/10 00:03:42;;;;;;;6.00;2.42;;;;;;;;;;5006877;28;20124;-58
2023/05/10 00:06:08;;;;;;;5.43;1.65;;;;;;;;;;5010135;28;20077;-58
2023/05/10 00:08:34;;;;;;;3.13;1.60;;;;;;;;;;5003104;28;20322;-58
2023/05/10 00:11:00;;;;;;;2.22;1.02;;;;;;;;;;5026456;28;20044;-58
2023/05/10 00:13:26;;;;;;;4.28;1.10;;;;;;;;;;5010267;28;20085;-58
2023/05/10 00:15:53;;;;;;;5.03;1.50;;;;;;;;;;5011209;28;20446;-57
2023/05/10 00:18:19;;;;;;;4.47;1.10;;;;;;;;;;5012286;28;20046;-58
2023/05/10 00:20:45;;;;;;;4.82;1.13;;;;;;;;;;5011130;28;20535;-58
2023/05/10 00:23:12;;;;;;;4.68;1.13;;;;;;;;;;5010712;28;20045;-58
2023/05/10 00:25:38;;;;;;;3.97;1.50;;;;;;;;;;5011331;28;20080;-58
2023/05/10 00:28:04;;;;;;;8.15;1.73;;;;;;;;;;5004132;28;20072;-58
2023/05/10 00:30:30;;;;;;;4.20;1.50;;;;;;;;;;5010635;28;20588;-58
2023/05/10 00:32:56;;;;;;;3.83;1.00;;;;;;;;;;5005838;28;20045;-58
2023/05/10 00:35:23;;;;;;;3.42;1.00;;;;;;;;;;5011712;28;20042;-58
2023/05/10 00:37:49;;;;;;;5.78;1.38;;;;;;;;;;5007519;28;21078;-58
2023/05/10 00:40:15;;;;;;;1.17;0.68;;;;;;;;;;5004701;28;20566;-58
2023/05/10 00:42:41;;;;;;;2.65;1.00;;;;;;;;;;5010467;28;20064;-58
2023/05/10 00:45:07;;;;;;;3.83;1.10;;;;;;;;;;5006071;28;20057;-58
2023/05/10 00:47:34;;;;;;;2.75;1.15;;;;;;;;;;5008381;28;20135;-58
2023/05/10 00:50:00;;;;;;;5.07;0.98;;;;;;;;;;5010442;28;20878;-58
2023/05/10 00:52:27;;;;;;;4.68;1.20;;;;;;;;;;5010305;28;20046;-57
2023/05/10 00:54:53;;;;;;;3.95;1.92;;;;;;;;;;5007761;28;20042;-58
2023/05/10 00:57:20;;;;;;;2.88;1.42;;;;;;;;;;5007881;28;20042;-57
2023/05/10 00:59:46;;;;;;;5.20;1.70;;;;;;;;;;5007602;28;20171;-58
2023/05/10 01:02:13;;;;;;;6.65;1.10;;;;;;;;;;5008920;28;20081;-59
2023/05/10 01:04:39;;;;;;;3.95;1.40;;;;;;;;;;5009228;28;20057;-57
2023/05/10 01:07:05;;;;;;;2.80;1.25;;;;;;;;;;5011532;28;20046;-57
2023/05/10 01:09:32;;;;;;;5.32;1.13;;;;;;;;;;5008299;28;20113;-58
2023/05/10 01:11:58;;;;;;;4.47;1.80;;;;;;;;;;5011311;28;20042;-58
2023/05/10 01:14:25;;;;;;;2.25;1.30;;;;;;;;;;5006915;28;20041;-58
2023/05/10 01:16:53;;;;;;;3.35;1.17;;;;;;;;;;5007952;28;20425;-57
2023/05/10 01:19:25;;;;;;;6.38;1.52;;;;;;;;;;5007441;28;20046;-58
2023/05/10 01:21:51;;;;;;;5.47;1.90;;;;;;;;;;5009021;28;20085;-57
2023/05/10 01:24:26;;;;;;;3.00;1.20;;;;;;;;;;5006440;28;20066;-58
2023/05/10 01:27:08;;;;;;;2.58;1.27;;;;;;;;;;5002460;28;20068;-58
2023/05/10 01:29:45;;;;;;;2.72;1.27;;;;;;;;;;5005369;28;20048;-58
2023/05/10 01:32:23;;;;;;;10.48;1.88;;;;;;;;;;5004370;28;20403;-58
2023/05/10 01:34:52;;;;;;;3.50;1.23;;;;;;;;;;5007716;28;20078;-58
2023/05/10 01:37:26;;;;;;;3.55;0.80;;;;;;;;;;5008962;28;20129;-58
2023/05/10 01:39:55;;;;;;;4.90;2.25;;;;;;;;;;5008776;28;20058;-58
2023/05/10 01:42:23;;;;;;;2.35;1.10;;;;;;;;;;5007658;28;20095;-58
2023/05/10 01:44:56;;;;;;;2.78;1.13;;;;;;;;;;5010438;28;20057;-58
2023/05/10 01:47:34;;;;;;;1.30;1.00;;;;;;;;;;5010514;28;20042;-58
2023/05/10 01:50:03;;;;;;;2.35;0.90;;;;;;;;;;5011992;28;21113;-58
2023/05/10 01:52:32;;;;;;;6.60;1.27;;;;;;;;;;5011062;28;20048;-58
2023/05/10 01:55:14;;;;;;;2.40;1.10;;;;;;;;;;5009767;28;20030;-58
2023/05/10 01:57:41;;;;;;;1.30;0.90;;;;;;;;;;5012208;28;20046;-58
2023/05/10 02:00:08;;;;;;;6.35;1.20;;;;;;;;;;5007267;28;20871;-58
2023/05/10 02:02:37;;;;;;;2.40;1.02;;;;;;;;;;5010460;28;20435;-58
2023/05/10 02:05:04;;;;;;;2.67;0.90;;;;;;;;;;5008787;28;20174;-58
2023/05/10 02:07:31;;;;;;;3.47;1.10;;;;;;;;;;5010443;28;20042;-58
2023/05/10 02:09:58;;;;;;;1.48;1.20;;;;;;;;;;5010558;28;20053;-58
2023/05/10 02:12:24;;;;;;;3.28;0.70;;;;;;;;;;5012655;28;20582;-59
2023/05/10 02:14:51;;;;;;;2.25;1.30;;;;;;;;;;5012124;28;20080;-58
2023/05/10 02:17:18;;;;;;;2.65;1.20;;;;;;;;;;5010526;28;20596;-59
2023/05/10 02:19:45;;;;;;;4.78;1.13;;;;;;;;;;5028264;28;20068;-58
2023/05/10 02:22:12;;;;;;;3.45;0.85;;;;;;;;;;5009530;28;20061;-58
2023/05/10 02:24:39;;;;;;;4.03;1.92;;;;;;;;;;5010004;28;20514;-58
2023/05/10 02:27:06;;;;;;;0.90;0.85;;;;;;;;;;5027106;28;20475;-58
2023/05/10 02:29:33;;;;;;;1.30;0.60;;;;;;;;;;5009685;28;20042;-58
2023/05/10 02:31:59;;;;;;;6.50;1.27;;;;;;;;;;5004809;28;20038;-58
2023/05/10 02:34:29;;;;;;;2.67;1.13;;;;;;;;;;5009189;28;20042;-58
2023/05/10 02:36:56;;;;;;;3.55;1.05;;;;;;;;;;5010134;28;20536;-58
2023/05/10 02:39:22;;;;;;;3.83;1.08;;;;;;;;;;5008728;28;20084;-58
2023/05/10 02:41:49;;;;;;;3.05;0.98;;;;;;;;;;5011293;28;20042;-58
2023/05/10 02:44:16;;;;;;;0.98;0.70;;;;;;;;;;5005446;28;20554;-58
2023/05/10 02:46:43;;;;;;;2.63;1.08;;;;;;;;;;5007097;28;20492;-58
2023/05/10 02:49:09;;;;;;;6.82;1.65;;;;;;;;;;5006277;28;20523;-58
2023/05/10 02:51:36;;;;;;;1.63;1.00;;;;;;;;;;5008492;28;20523;-58
2023/05/10 02:54:07;;;;;;;2.38;0.95;;;;;;;;;;5010961;28;20093;-58
2023/05/10 02:56:34;;;;;;;1.05;0.90;;;;;;;;;;5004139;28;20041;-58
2023/05/10 02:59:01;;;;;;;2.22;1.23;;;;;;;;;;5013381;28;20117;-58
2023/05/10 03:01:27;;;;;;;7.18;1.35;;;;;;;;;;5009580;28;20144;-58
2023/05/10 03:03:53;;;;;;;2.35;1.65;;;;;;;;;;5012370;28;20164;-58
2023/05/10 03:06:19;;;;;;;1.75;1.05;;;;;;;;;;5010015;28;21194;-58
2023/05/10 03:08:45;;;;;;;2.38;0.88;;;;;;;;;;5012311;28;20725;-58
2023/05/10 03:11:14;;;;;;;1.85;0.90;;;;;;;;;;5011527;28;20121;-58
2023/05/10 03:13:45;;;;;;;2.47;0.80;;;;;;;;;;5012145;28;20057;-58
2023/05/10 03:16:14;;;;;;;1.23;0.90;;;;;;;;;;5001735;28;20131;-58
2023/05/10 03:18:51;;;;;;;1.10;0.65;;;;;;;;;;5009507;28;20041;-58
2023/05/10 03:21:18;;;;;;;2.47;0.98;;;;;;;;;;5008409;28;20184;-58
2023/05/10 03:23:51;;;;;;;3.72;0.70;;;;;;;;;;5007505;28;20052;-59
2023/05/10 03:26:28;;;;;;;1.38;0.73;;;;;;;;;;5009668;28;20053;-58
2023/05/10 03:28:54;;;;;;;4.18;1.25;;;;;;;;;;5005630;28;20034;-58
2023/05/10 03:31:20;;;;;;;4.25;1.05;;;;;;;;;;5008261;28;20041;-58
2023/05/10 03:33:49;;;;;;;3.40;0.88;;;;;;;;;;5008667;28;20053;-58
2023/05/10 03:36:16;;;;;;;1.90;0.88;;;;;;;;;;5003780;28;20045;-57
2023/05/10 03:38:42;;;;;;;3.00;0.95;;;;;;;;;;5011043;28;20601;-57
2023/05/10 03:41:08;;;;;;;2.88;1.80;;;;;;;;;;5011215;28;20041;-58
2023/05/10 03:43:34;;;;;;;0.77;0.70;;;;;;;;;;5009503;28;20052;-57
2023/05/10 03:46:02;;;;;;;1.73;0.93;;;;;;;;;;5008725;28;20121;-57
2023/05/10 03:48:28;;;;;;;6.35;1.10;;;;;;;;;;5012655;28;20038;-57
2023/05/10 03:50:54;;;;;;;4.93;0.90;;;;;;;;;;5009627;28;20813;-57
2023/05/10 03:53:20;;;;;;;0.55;0.50;;;;;;;;;;5029737;28;20137;-58
2023/05/10 03:55:46;;;;;;;2.88;0.70;;;;;;;;;;5011024;28;20046;-57
2023/05/10 03:58:12;;;;;;;0.45;0.40;;;;;;;;;;5011287;28;20049;-57
2023/05/10 04:00:43;;;;;;;0.77;0.70;;;;;;;;;;5013127;28;20046;-57
2023/05/10 04:03:09;;;;;;;2.40;0.95;;;;;;;;;;5009000;28;20528;-56
2023/05/10 04:05:36;;;;;;;2.95;0.88;;;;;;;;;;5009935;28;20054;-57
2023/05/10 04:08:02;;;;;;;2.03;0.50;;;;;;;;;;5012609;28;20190;-57
2023/05/10 04:10:28;;;;;;;0.93;0.60;;;;;;;;;;5009385;28;20076;-57
2023/05/10 04:12:54;;;;;;;0.95;0.55;;;;;;;;;;5007102;28;20177;-57
2023/05/10 04:15:20;;;;;;;1.55;1.25;;;;;;;;;;5010529;28;20038;-57
2023/05/10 04:17:46;;;;;;;2.95;1.00;;;;;;;;;;5010154;28;20097;-56
2023/05/10 04:20:13;;;;;;;1.80;0.70;;;;;;;;;;5008399;28;20042;-57
2023/05/10 04:22:39;;;;;;;2.20;0.80;;;;;;;;;;5009448;28;20078;-57
2023/05/10 04:25:05;;;;;;;1.02;0.63;;;;;;;;;;5008433;28;20042;-57
2023/05/10 04:27:32;;;;;;;1.45;0.55;;;;;;;;;;5007175;28;20041;-57
2023/05/10 04:29:58;;;;;;;1.90;1.13;;;;;;;;;;5009103;28;20042;-57
2023/05/10 04:32:24;;;;;;;4.80;1.08;;;;;;;;;;5008486;28;20532;-57
2023/05/10 04:34:51;;;;;;;5.70;1.10;;;;;;;;;;5010567;28;20052;-57
2023/05/10 04:37:17;;;;;;;4.65;0.90;;;;;;;;;;5008850;28;20038;-57
2023/05/10 04:39:43;;;;;;;2.00;0.60;;;;;;;;;;5009270;28;20042;-57
2023/05/10 04:42:10;;;;;;;1.85;0.77;;;;;;;;;;5006793;28;20118;-57
2023/05/10 04:44:36;;;;;;;1.83;1.60;;;;;;;;;;5034778;28;20046;-57
2023/05/10 04:47:02;;;;;;;1.95;0.60;;;;;;;;;;5008845;28;20246;-56
2023/05/10 04:49:29;;;;;;;1.77;0.88;;;;;;;;;;5023691;28;20104;-57
2023/05/10 04:51:55;;;;;;;1.15;0.60;;;;;;;;;;5007300;28;21335;-57
2023/05/10 04:54:22;;;;;;;1.35;0.90;;;;;;;;;;5008714;28;20575;-57
2023/05/10 04:56:48;;;;;;;1.25;1.15;;;;;;;;;;5010856;28;20039;-57
2023/05/10 04:59:14;;;;;;;1.58;0.70;;;;;;;;;;5014173;28;20455;-57
2023/05/10 05:01:40;;;;;;;1.45;0.57;;;;;;;;;;5011778;28;20076;-57
2023/05/10 05:04:06;;;;;;;2.95;1.20;;;;;;;;;;5013281;28;20053;-57
2023/05/10 05:06:32;;;;;;;0.90;0.50;;;;;;;;;;5014165;28;20199;-57
2023/05/10 05:08:58;;;;;;;1.70;0.75;;;;;;;;;;5015790;28;20038;-56
2023/05/10 05:11:25;;;;;;;0.65;0.55;;;;;;;;;;5014390;28;20284;-57
2023/05/10 05:13:51;;;;;;;0.52;0.47;;;;;;;;;;5014404;28;20061;-57
2023/05/10 05:16:18;;;;;;;2.30;1.55;;;;;;;;;;5015077;28;20053;-57
2023/05/10 05:18:44;;;;;;;1.25;0.50;;;;;;;;;;5017724;28;20045;-57
2023/05/10 05:21:16;;;;;;;1.65;0.70;;;;;;;;;;5015683;28;20053;-57
2023/05/10 05:23:42;;;;;;;1.35;0.63;;;;;;;;;;5013212;28;20143;-57
2023/05/10 05:26:08;;;;;;;1.55;0.60;;;;;;;;;;5013164;28;20622;-57
2023/05/10 05:28:37;;;;;;;3.30;0.85;;;;;;;;;;5017684;28;20042;-57
2023/05/10 05:31:03;;;;;;;1.10;0.65;;;;;;;;;;5016958;28;20050;-57
2023/05/10 05:33:29;;;;;;;1.25;0.70;;;;;;;;;;5016514;28;20037;-57
2023/05/10 05:35:55;;;;;;;2.15;0.80;;;;;;;;;;5015891;28;20041;-57
2023/05/10 05:38:21;;;;;;;3.08;0.88;;;;;;;;;;5017820;28;20558;-57
2023/05/10 05:40:47;;;;;;;2.50;1.10;;;;;;;;;;5009415;28;20052;-57
2023/05/10 05:43:13;;;;;;;5.68;1.30;;;;;;;;;;5016632;28;20096;-57
2023/05/10 05:45:40;;;;;;;5.03;1.30;;;;;;;;;;5016413;28;20051;-57
2023/05/10 05:48:06;;;;;;;4.35;1.02;;;;;;;;;;5017208;28;20478;-58
2023/05/10 05:50:32;;;;;;;1.38;0.82;;;;;;;;;;5014683;28;20081;-57
2023/05/10 05:52:58;;;;;;;2.13;0.90;;;;;;;;;;5016524;28;20052;-60
2023/05/10 05:55:25;;;;;;;1.95;0.90;;;;;;;;;;5015622;28;20075;-60
2023/05/10 05:57:52;;;;;;;2.42;0.75;;;;;;;;;;5015831;28;20050;-60
2023/05/10 06:00:18;;;;;;;3.20;1.20;;;;;;;;;;5017028;28;20085;-60
2023/05/10 06:02:44;;;;;;;1.67;1.10;;;;;;;;;;5017029;28;20033;-60
2023/05/10 06:05:10;;;;;;;3.20;1.50;;;;;;;;;;5015812;28;20034;-60
2023/05/10 06:07:36;;;;;;;2.50;1.15;;;;;;;;;;5015672;28;20042;-60
2023/05/10 06:10:02;;;;;;;3.67;1.40;;;;;;;;;;5045173;28;20156;-60
2023/05/10 06:12:28;;;;;;;4.65;1.35;;;;;;;;;;5014823;28;20042;-60
2023/05/10 06:14:55;;;;;;;7.65;4.15;;;;;;;;;;5013762;28;20543;-59
2023/05/10 06:17:21;;;;;;;4.53;1.40;;;;;;;;;;5016298;28;20038;-60
2023/05/10 06:19:47;;;;;;;2.80;2.13;;;;;;;;;;5046684;28;20124;-60
2023/05/10 06:22:13;;;;;;;5.78;2.20;;;;;;;;;;5016761;28;20555;-58
2023/05/10 06:24:39;;;;;;;7.63;2.22;;;;;;;;;;5015166;28;20038;-57
2023/05/10 06:27:06;;;;;;;7.28;2.25;;;;;;;;;;5017208;28;20523;-57
2023/05/10 06:29:32;;;;;;;10.73;2.00;;;;;;;;;;5016684;28;20042;-57
2023/05/10 06:31:58;;;;;;;5.13;1.55;;;;;;;;;;5015477;28;20193;-57
2023/05/10 06:34:25;;;;;;;6.68;3.17;;;;;;;;;;5016187;28;20455;-58
2023/05/10 06:36:51;;;;;;;7.18;2.80;;;;;;;;;;5015558;28;20045;-58
2023/05/10 06:39:18;;;;;;;11.30;3.80;;;;;;;;;;5015152;28;20831;-57
2023/05/10 06:41:44;;;;;;;15.20;3.90;;;;;;;;;;5016609;28;20037;-57
2023/05/10 06:44:10;;;;;;;12.32;3.42;;;;;;;;;;5015767;28;20061;-58
2023/05/10 06:46:36;;;;;;;14.63;2.67;;;;;;;;;;5016934;28;20042;-58
2023/05/10 06:49:02;;;;;;;8.48;2.78;;;;;;;;;;5016511;28;20042;-57
2023/05/10 06:51:28;;;;;;;12.48;3.67;;;;;;;;;;5016767;28;20546;-57
2023/05/10 06:53:55;;;;;;;9.93;2.47;;;;;;;;;;5015099;28;20042;-58
2023/05/10 06:56:21;;;;;;;11.25;2.40;;;;;;;;;;5016039;28;20121;-57
2023/05/10 06:58:48;;;;;;;11.95;4.80;;;;;;;;;;5015584;28;20090;-58
2023/05/10 07:01:14;;;;;;;6.55;2.40;;;;;;;;;;5016517;28;20042;-57
2023/05/10 07:03:41;;;;;;;13.60;3.35;;;;;;;;;;5015015;28;20602;-57
2023/05/10 07:06:07;;;;;;;11.88;2.38;;;;;;;;;;5017359;28;20060;-58
2023/05/10 07:08:34;;;;;;;8.13;2.80;;;;;;;;;;5015997;28;20416;-58
2023/05/10 07:11:01;;;;;;;9.30;3.03;;;;;;;;;;5008574;28;20998;-57
2023/05/10 07:13:27;;;;;;;8.32;2.83;;;;;;;;;;5013519;28;20533;-57
2023/05/10 07:15:53;;;;;;;9.35;3.10;;;;;;;;;;5014653;28;20120;-58
2023/05/10 07:18:19;;;;;;;11.95;3.13;;;;;;;;;;5015334;28;20062;-57
2023/05/10 07:20:45;;;;;;;12.93;3.13;;;;;;;;;;5016866;28;20092;-57
2023/05/10 07:23:11;;;;;;;10.88;3.55;;;;;;;;;;5014988;28;20034;-58
2023/05/10 07:25:37;;;;;;;18.60;3.33;;;;;;;;;;5013932;28;20129;-57
2023/05/10 07:28:04;;;;;;;11.82;3.08;;;;;;;;;;5015286;28;20050;-58
2023/05/10 07:30:30;;;;;;;13.40;4.13;;;;;;;;;;5014483;28;20511;-58
2023/05/10 07:32:56;;;;;;;13.50;3.72;;;;;;;;;;5015361;28;20506;-57
2023/05/10 07:35:22;;;;;;;8.45;3.50;;;;;;;;;;5015911;28;20512;-58
2023/05/10 07:37:48;;;;;;;14.00;2.60;;;;;;;;;;5012790;28;20042;-58
2023/05/10 07:40:14;;;;;;;13.52;3.75;;;;;;;;;;5014778;28;20109;-58
2023/05/10 07:42:41;;;;;;;12.82;2.97;;;;;;;;;;5013919;28;20078;-57
2023/05/10 07:45:07;;;;;;;13.32;4.22;;;;;;;;;;5014911;28;20600;-58
2023/05/10 07:47:33;;;;;;;14.15;4.07;;;;;;;;;;5008179;28;20128;-58
2023/05/10 07:49:59;;;;;;;10.63;3.33;;;;;;;;;;5015785;28;20122;-58
2023/05/10 07:52:25;;;;;;;15.07;3.90;;;;;;;;;;5015812;28;20053;-57
2023/05/10 07:54:51;;;;;;;12.93;3.30;;;;;;;;;;5016882;28;20050;-57
2023/05/10 07:57:18;;;;;;;13.45;3.97;;;;;;;;;;5014750;28;20602;-57
2023/05/10 07:59:45;;;;;;;8.93;3.10;;;;;;;;;;5015427;28;20093;-58
2023/05/10 08:02:11;;;;;;;11.63;3.13;;;;;;;;;;5012578;28;20570;-57
2023/05/10 08:04:37;;;;;;;10.88;2.97;;;;;;;;;;5015475;28;20056;-58
2023/05/10 08:07:03;;;;;;;15.07;3.15;;;;;;;;;;5013780;28;20042;-57
2023/05/10 08:09:29;;;;;;;10.18;5.10;;;;;;;;;;5015213;28;20041;-58
2023/05/10 08:11:56;;;;;;;11.88;3.38;;;;;;;;;;5013862;28;20038;-58
2023/05/10 08:14:22;;;;;;;12.68;3.17;;;;;;;;;;5015118;28;20042;-57
2023/05/10 08:16:48;;;;;;;7.60;2.67;;;;;;;;;;5029246;28;20046;-58
2023/05/10 08:19:14;;;;;;;9.50;3.70;;;;;;;;;;5012600;28;20934;-57
2023/05/10 08:21:41;;;;;;;8.25;2.80;;;;;;;;;;5012441;28;20045;-57
2023/05/10 08:24:08;;;;;;;17.83;3.30;;;;;;;;;;5015402;28;20056;-57
2023/05/10 08:26:34;;;;;;;7.57;2.08;;;;;;;;;;5015756;28;20073;-58
2023/05/10 08:29:00;;;;;;;10.23;2.72;;;;;;;;;;5014460;28;20048;-57
2023/05/10 08:31:26;;;;;;;6.82;2.42;;;;;;;;;;5015198;28;20665;-58
2023/05/10 08:33:52;;;;;;;11.55;2.33;;;;;;;;;;5045851;28;20038;-57
2023/05/10 08:36:24;;;;;;;7.97;3.38;;;;;;;;;;5013910;28;20143;-57
2023/05/10 08:38:53;;;;;;;9.90;3.00;;;;;;;;;;5013263;28;20112;-57
2023/05/10 08:41:23;;;;;;;8.02;2.22;;;;;;;;;;5015213;28;20049;-58
2023/05/10 08:43:50;;;;;;;6.47;3.33;;;;;;;;;;5013148;28;20050;-58
2023/05/10 08:46:17;;;;;;;8.43;2.47;;;;;;;;;;5014506;28;20050;-58
2023/05/10 08:48:45;;;;;;;7.82;3.15;;;;;;;;;;5014903;28;20468;-57
2023/05/10 08:51:13;;;;;;;16.25;3.47;;;;;;;;;;5018219;28;20547;-58
2023/05/10 08:53:39;;;;;;;8.57;2.55;;;;;;;;;;5017038;28;20045;-58
2023/05/10 08:56:06;;;;;;;11.43;4.07;;;;;;;;;;5010713;28;20049;-57
2023/05/10 08:58:32;;;;;;;11.38;3.78;;;;;;;;;;5009744;28;20096;-58
2023/05/10 09:00:58;;;;;;;8.55;2.42;;;;;;;;;;5018170;28;20038;-58
2023/05/10 09:03:24;;;;;;;5.55;2.10;;;;;;;;;;5017965;28;20798;-57
2023/05/10 09:05:50;;;;;;;8.70;2.80;;;;;;;;;;5017350;28;20619;-57
2023/05/10 09:08:16;;;;;;;6.13;2.22;;;;;;;;;;5015880;28;20046;-57
2023/05/10 09:10:43;;;;;;;12.93;3.00;;;;;;;;;;5017673;28;20114;-58
2023/05/10 09:13:13;;;;;;;11.27;3.72;;;;;;;;;;5016646;28;20046;-58
2023/05/10 09:15:40;;;;;;;5.70;1.83;;;;;;;;;;5017976;28;20053;-58
2023/05/10 09:18:06;;;;;;;9.90;3.63;;;;;;;;;;5018228;28;20463;-57
2023/05/10 09:20:32;;;;;;;8.93;2.35;;;;;;;;;;5015590;28;20088;-57
2023/05/10 09:22:58;;;;;;;6.78;2.53;;;;;;;;;;5016019;28;20547;-58
2023/05/10 09:25:24;;;;;;;5.18;2.58;;;;;;;;;;5016955;28;20050;-58
2023/05/10 09:27:50;;;;;;;7.35;1.63;;;;;;;;;;5016669;28;20528;-58
2023/05/10 09:30:17;;;;;;;5.97;2.72;;;;;;;;;;5018372;28;20049;-57
2023/05/10 09:32:44;;;;;;;7.65;2.20;;;;;;;;;;5016772;28;20528;-58
2023/05/10 09:35:11;;;;;;;7.15;2.25;;;;;;;;;;5017614;28;20058;-58
2023/05/10 09:37:41;;;;;;;7.82;3.00;;;;;;;;;;5016207;28;20038;-57
2023/05/10 09:40:07;;;;;;;9.40;2.50;;;;;;;;;;5017466;28;20048;-58
2023/05/10 09:42:34;;;;;;;8.93;2.80;;;;;;;;;;5016455;28;20082;-58
2023/05/10 09:45:04;;;;;;;6.82;2.70;;;;;;;;;;5017370;28;20196;-57
2023/05/10 09:47:34;;;;;;;6.57;2.00;;;;;;;;;;5015359;28;20037;-58
2023/05/10 09:50:04;;;;;;;7.40;2.50;;;;;;;;;;5031689;28;20514;-58
2023/05/10 09:52:51;;;;;;;8.82;2.17;;;;;;;;;;5016620;28;20105;-57
2023/05/10 09:55:17;;;;;;;10.13;3.20;;;;;;;;;;5013435;28;20058;-58
2023/05/10 09:57:43;;;;;;;9.00;2.33;;;;;;;;;;5018287;28;20033;-57
2023/05/10 10:00:10;;;;;;;6.38;2.35;;;;;;;;;;5015573;28;20075;-58
2023/05/10 10:02:36;;;;;;;23.83;10.35;;;;;;;;;;5016652;28;20045;-58
2023/05/10 10:05:03;;;;;;;7.38;2.92;;;;;;;;;;5014798;28;20076;-57
2023/05/10 10:07:29;;;;;;;13.30;3.22;;;;;;;;;;5015481;28;20057;-58
2023/05/10 10:09:56;;;;;;;10.05;3.15;;;;;;;;;;5013641;28;20140;-58
2023/05/10 10:12:22;;;;;;;8.15;2.92;;;;;;;;;;5016761;28;20049;-57
2023/05/10 10:14:50;;;;;;;14.35;4.38;;;;;;;;;;5017418;28;20038;-58
2023/05/10 10:17:16;;;;;;;8.18;2.50;;;;;;;;;;5016458;28;20050;-58
2023/05/10 10:19:42;;;;;;;9.38;2.28;;;;;;;;;;5014326;28;20037;-57
2023/05/10 10:22:11;;;;;;;5.35;2.67;;;;;;;;;;5017966;28;20087;-58
2023/05/10 10:24:37;;;;;;;10.70;2.22;;;;;;;;;;5016859;28;21421;-58
2023/05/10 10:27:19;;;;;;;6.20;3.17;;;;;;;;;;5017856;28;20206;-58
2023/05/10 10:29:50;;;;;;;12.20;4.00;;;;;;;;;;5015120;28;20444;-58
2023/05/10 10:32:19;;;;;;;4.40;1.85;;;;;;;;;;5008185;28;20049;-58
2023/05/10 10:34:45;;;;;;;8.35;1.65;;;;;;;;;;5016237;28;20057;-58
2023/05/10 10:37:12;;;;;;;7.65;2.00;;;;;;;;;;5017477;28;20217;-58
2023/05/10 10:39:38;;;;;;;5.32;2.22;;;;;;;;;;5015819;28;20057;-58
2023/05/10 10:42:04;;;;;;;10.88;2.42;;;;;;;;;;5017022;28;20140;-57
2023/05/10 10:44:33;;;;;;;4.72;2.55;;;;;;;;;;5016329;28;20203;-58
2023/05/10 10:47:00;;;;;;;6.50;2.80;;;;;;;;;;5015579;28;20404;-58
2023/05/10 10:49:26;;;;;;;6.88;2.13;;;;;;;;;;5016382;28;20068;-58
2023/05/10 10:52:11;;;;;;;10.77;2.30;;;;;;;;;;5016584;28;20554;-57
2023/05/10 10:54:38;;;;;;;11.25;4.32;;;;;;;;;;5017315;28;20169;-58
2023/05/10 10:57:14;;;;;;;8.30;2.80;;;;;;;;;;5015305;28;20050;-58
2023/05/10 10:59:46;;;;;;;5.65;1.90;;;;;;;;;;5014642;28;20569;-57
2023/05/10 11:02:38;;;;;;;14.60;3.55;;;;;;;;;;5016404;28;20088;-61
2023/05/10 11:05:23;;;;;;;8.00;2.08;;;;;;;;;;5016038;28;20061;-60
2023/05/10 11:07:56;;;;;;;4.85;1.85;;;;;;;;;;5016435;28;20044;-61
2023/05/10 11:10:23;;;;;;;9.63;2.22;;;;;;;;;;5015414;28;20116;-60
2023/05/10 11:12:53;;;;;;;13.43;3.10;;;;;;;;;;5014634;28;20037;-61
2023/05/10 11:15:20;;;;;;;6.88;2.00;;;;;;;;;;5014403;28;20524;-61
2023/05/10 11:17:51;;;;;;;6.30;2.20;;;;;;;;;;5014645;28;20091;-60
2023/05/10 11:20:22;;;;;;;7.05;2.75;;;;;;;;;;5016638;28;20030;-61
2023/05/10 11:22:55;;;;;;;4.83;1.40;;;;;;;;;;5016698;28;20088;-60
2023/05/10 11:25:27;;;;;;;9.80;2.50;;;;;;;;;;4994143;28;20029;-60
2023/05/10 11:27:53;;;;;;;5.15;2.38;;;;;;;;;;5015839;28;20038;-60
2023/05/10 11:30:20;;;;;;;4.68;1.83;;;;;;;;;;5016919;28;20201;-60
2023/05/10 11:32:46;;;;;;;7.03;1.63;;;;;;;;;;5015570;28;20041;-59
2023/05/10 11:35:12;;;;;;;5.82;1.75;;;;;;;;;;5045973;28;20045;-60
2023/05/10 11:37:43;;;;;;;10.10;2.30;;;;;;;;;;5015148;28;20596;-61
2023/05/10 11:40:09;;;;;;;7.35;2.00;;;;;;;;;;5010911;28;20044;-61
2023/05/10 11:42:38;;;;;;;3.10;1.75;;;;;;;;;;5012938;28;20054;-61
2023/05/10 11:45:05;;;;;;;7.28;2.00;;;;;;;;;;5015045;28;20125;-60
2023/05/10 11:47:32;;;;;;;6.40;1.40;;;;;;;;;;5045387;28;20044;-60
2023/05/10 11:49:59;;;;;;;6.47;1.80;;;;;;;;;;5013372;28;20177;-60
2023/05/10 11:52:25;;;;;;;6.70;1.58;;;;;;;;;;5012999;28;20575;-60
2023/05/10 11:54:52;;;;;;;7.60;1.90;;;;;;;;;;5014338;28;20050;-60
2023/05/10 11:57:21;;;;;;;5.15;1.92;;;;;;;;;;5013939;28;20041;-60
2023/05/10 11:59:48;;;;;;;6.88;1.83;;;;;;;;;;5014059;28;20135;-60
2023/05/10 12:02:14;;;;;;;3.05;1.30;;;;;;;;;;5015265;28;20838;-61
2023/05/10 12:04:41;;;;;;;6.97;2.25;;;;;;;;;;5013716;28;20056;-61
2023/05/10 12:07:07;;;;;;;6.38;2.20;;;;;;;;;;5014018;28;20033;-60
2023/05/10 12:09:33;;;;;;;4.72;1.77;;;;;;;;;;5015950;28;20535;-62
2023/05/10 12:12:00;;;;;;;5.38;1.73;;;;;;;;;;5015190;28;20069;-60
2023/05/10 12:14:28;;;;;;;9.77;2.00;;;;;;;;;;5015497;28;20050;-61
2023/05/10 12:16:54;;;;;;;6.03;1.70;;;;;;;;;;5013208;28;20128;-60
2023/05/10 12:19:20;;;;;;;2.20;1.50;;;;;;;;;;5015071;28;20073;-61
2023/05/10 12:21:47;;;;;;;2.88;1.70;;;;;;;;;;5014464;28;20501;-61
2023/05/10 12:24:17;;;;;;;7.60;2.08;;;;;;;;;;5014868;28;20046;-61
2023/05/10 12:26:43;;;;;;;8.57;1.67;;;;;;;;;;5015502;28;20052;-61
2023/05/10 12:29:16;;;;;;;4.47;2.05;;;;;;;;;;5014155;28;20042;-60
2023/05/10 12:31:56;;;;;;;10.10;2.05;;;;;;;;;;5014426;28;20042;-61
2023/05/10 12:34:31;;;;;;;10.57;2.60;;;;;;;;;;5014474;28;20046;-60
2023/05/10 12:36:58;;;;;;;3.78;1.77;;;;;;;;;;5015309;28;20085;-60
2023/05/10 12:39:24;;;;;;;3.92;1.40;;;;;;;;;;5013981;28;20041;-58
2023/05/10 12:41:51;;;;;;;6.10;2.10;;;;;;;;;;5015819;28;20436;-58
2023/05/10 12:44:18;;;;;;;4.13;1.65;;;;;;;;;;5014237;28;20053;-58
2023/05/10 12:46:45;;;;;;;4.38;1.98;;;;;;;;;;5015114;28;20058;-58
2023/05/10 12:49:11;;;;;;;5.35;1.88;;;;;;;;;;5015553;28;20136;-58
2023/05/10 12:51:37;;;;;;;6.35;1.50;;;;;;;;;;5016480;28;20619;-58
2023/05/10 12:54:03;;;;;;;7.40;2.10;;;;;;;;;;5030221;28;20610;-58
2023/05/10 12:56:30;;;;;;;3.50;1.92;;;;;;;;;;5015464;28;20092;-58
2023/05/10 12:58:56;;;;;;;7.57;2.28;;;;;;;;;;5014589;28;20081;-58
2023/05/10 13:01:22;;;;;;;4.15;2.05;;;;;;;;;;5014680;28;20099;-58
2023/05/10 13:03:48;;;;;;;7.57;2.80;;;;;;;;;;5013910;28;20057;-58
2023/05/10 13:06:14;;;;;;;3.95;1.63;;;;;;;;;;5015085;28;20046;-58
2023/05/10 13:08:40;;;;;;;3.80;1.42;;;;;;;;;;5015061;28;20046;-58
2023/05/10 13:11:06;;;;;;;5.05;1.50;;;;;;;;;;5015496;28;20124;-57
2023/05/10 13:13:33;;;;;;;3.42;1.15;;;;;;;;;;5014251;28;20077;-58
2023/05/10 13:15:59;;;;;;;7.57;1.65;;;;;;;;;;5014424;28;20046;-58
2023/05/10 13:18:26;;;;;;;5.15;1.40;;;;;;;;;;5013021;28;20133;-58
2023/05/10 13:20:52;;;;;;;3.85;1.35;;;;;;;;;;5014757;28;20524;-59
2023/05/10 13:23:18;;;;;;;2.92;1.20;;;;;;;;;;5012211;28;20165;-58
2023/05/10 13:25:44;;;;;;;4.57;1.75;;;;;;;;;;5013787;28;20130;-58
2023/05/10 13:28:10;;;;;;;6.38;2.15;;;;;;;;;;5013454;28;20053;-58
2023/05/10 13:30:36;;;;;;;4.47;2.15;;;;;;;;;;5014701;28;20038;-58
2023/05/10 13:33:02;;;;;;;2.95;1.60;;;;;;;;;;5012938;28;20508;-58
2023/05/10 13:35:28;;;;;;;5.57;2.17;;;;;;;;;;5013680;28;20046;-58
2023/05/10 13:37:57;;;;;;;3.75;1.65;;;;;;;;;;5016833;28;20096;-58
2023/05/10 13:40:23;;;;;;;2.97;1.58;;;;;;;;;;5018068;28;20655;-58
2023/05/10 13:42:49;;;;;;;5.65;1.58;;;;;;;;;;5016122;28;20157;-58
2023/05/10 13:45:15;;;;;;;2.90;1.13;;;;;;;;;;5014573;28;20049;-58
2023/05/10 13:47:42;;;;;;;5.15;1.60;;;;;;;;;;5014073;28;20100;-58
2023/05/10 13:50:08;;;;;;;8.45;3.22;;;;;;;;;;5032534;28;20042;-58
2023/05/10 13:52:35;;;;;;;2.30;1.08;;;;;;;;;;5017339;28;20045;-58
2023/05/10 13:55:01;;;;;;;3.67;1.60;;;;;;;;;;5016048;28;20076;-58
2023/05/10 13:57:28;;;;;;;2.38;1.10;;;;;;;;;;5016318;28;20046;-57
2023/05/10 13:59:54;;;;;;;4.25;1.10;;;;;;;;;;5015803;28;20048;-58
2023/05/10 14:02:21;;;;;;;3.40;0.88;;;;;;;;;;5014880;28;20088;-58
2023/05/10 14:04:48;;;;;;;3.20;1.65;;;;;;;;;;5014841;28;20125;-58
2023/05/10 14:07:14;;;;;;;1.70;1.20;;;;;;;;;;5009855;28;20045;-57
2023/05/10 14:09:40;;;;;;;4.30;1.52;;;;;;;;;;5016694;28;20532;-58
2023/05/10 14:12:06;;;;;;;4.22;2.00;;;;;;;;;;5016825;28;20572;-58
2023/05/10 14:14:32;;;;;;;3.35;1.05;;;;;;;;;;5015779;28;20057;-58
2023/05/10 14:16:59;;;;;;;3.65;1.30;;;;;;;;;;5015964;28;20536;-58
2023/05/10 14:19:26;;;;;;;1.65;0.82;;;;;;;;;;5016086;28;20125;-58
2023/05/10 14:21:52;;;;;;;0.60;0.60;;;;;;;;;;5016734;28;20046;-58
2023/05/10 14:24:18;;;;;;;4.40;1.30;;;;;;;;;;5016288;28;20112;-58
2023/05/10 14:26:45;;;;;;;3.30;1.35;;;;;;;;;;5017177;28;20045;-58
2023/05/10 14:29:11;;;;;;;1.95;0.90;;;;;;;;;;5016285;28;20206;-57
2023/05/10 14:31:37;;;;;;;1.10;0.80;;;;;;;;;;5009577;28;20042;-58
2023/05/10 14:34:03;;;;;;;3.75;0.93;;;;;;;;;;5016239;28;20042;-57
2023/05/10 14:36:29;;;;;;;2.47;1.05;;;;;;;;;;5017871;28;20520;-58
2023/05/10 14:38:55;;;;;;;2.38;0.90;;;;;;;;;;5016109;28;20125;-58
2023/05/10 14:41:21;;;;;;;1.08;0.68;;;;;;;;;;5016183;28;20057;-58